Latest Coastal Weather Observations for Minlaton Airport

IDS60701

Issued at 6:55 am CST Wednesday 17 September 2014 (issued every 10 minutes, with the page automatically refreshed every 10 minutes)

About coastal observations | Map of coastal stations | Coastal observations for SA | Marine services | Other Formats
Station Details ID: 022031 Name: MINLATON AERO Lat: -34.75 Lon: 137.53 Height: 32.0 m
Data from the previous 72 hours. | See also: Recent months at Minlaton Airport
Date/Time
CST
Temp

°C
Wind Pressure Rain
since 9am
mm
Weather Cloud Vis
km
Sea
Height
m
Swell
Dir
 
Speed
knots
Gust
knots
hPa Trend Height
m
Period
s
Dir
17/06:30am 4.9 S 5 6 1020.5 - 0.0 - - - - - - -
17/06:00am 5.0 S 4 5 1020.3 - 0.0 - - - - - - -
17/05:30am 5.5 SSE 6 7 1020.0 - 0.0 - - - - - - -
17/05:00am 6.8 SSW 7 8 1019.7 - 0.0 - - - - - - -
17/04:30am 7.0 SSW 4 5 1019.5 - 0.0 - - - - - - -
17/04:00am 8.5 SW 6 8 1019.4 - 0.0 - - - - - - -
17/03:30am 8.8 SW 7 9 1019.3 - 0.0 - - - - - - -
17/03:00am 9.2 SW 9 11 1019.2 - 0.0 - - - - - - -
17/02:30am 7.4 SW 7 9 1019.4 - 0.0 - - - - - - -
17/02:00am 6.3 SSW 5 8 1019.4 - 0.0 - - - - - - -
17/01:30am 7.6 SW 6 8 1019.5 - 0.0 - - - - - - -
17/01:00am 7.4 SSW 7 9 1019.7 - 0.0 - - - - - - -
17/12:30am 7.6 SSW 6 8 1020.0 - 0.0 - - - - - - -
17/12:00am 8.1 SW 8 9 1020.0 - 0.0 - - - - - - -
 
Date/Time
CST
Temp

°C
Wind Pressure Rain
since 9am
mm
Weather Cloud Vis
km
Sea
Height
m
Swell
Dir
 
Speed
knots
Gust
knots
hPa Trend Height
m
Period
s
Dir
16/11:30pm 8.5 SW 6 8 1020.0 - 0.0 - - - - - - -
16/11:00pm 10.1 WSW 7 9 1020.0 - 0.0 - - - - - - -
16/10:30pm 11.3 WSW 8 9 1020.3 - 0.0 - - - - - - -
16/10:00pm 11.6 SW 11 16 1020.3 - 0.0 - - - - - - -
16/09:30pm 8.8 SW 10 13 1020.1 - 0.0 - - - - - - -
16/09:00pm 7.4 SW 9 11 1019.9 - 0.0 - - - - - - -
16/08:30pm 7.6 SW 8 9 1019.5 - 0.0 - - - - - - -
16/08:00pm 8.6 SW 7 8 1019.3 - 0.0 - - - - - - -
16/07:30pm 10.5 WSW 9 13 1018.9 - 0.0 - - - - - - -
16/07:00pm 12.0 WSW 11 16 1018.6 - 0.0 - - - - - - -
16/06:30pm 12.5 WSW 11 14 1018.4 - 0.0 - - - - - - -
16/06:00pm 12.8 SW 11 15 1018.1 - 0.0 - - - - - - -
16/05:30pm 14.0 WSW 10 14 1017.7 - 0.0 - - - - - - -
16/05:00pm 15.2 WSW 11 16 1017.6 - 0.0 - - - - - - -
16/04:30pm 14.2 WSW 11 16 1017.6 - 0.0 - - - - - - -
16/04:00pm 14.6 WSW 14 19 1017.4 - 0.0 - - - - - - -
16/03:30pm 15.2 W 16 19 1017.3 - 0.0 - - - - - - -
16/03:00pm 15.6 W 12 16 1017.1 - 0.0 - - - - - - -
16/02:30pm 16.5 W 12 16 1017.1 - 0.0 - - - - - - -
16/02:00pm 16.2 W 14 18 1017.3 - 0.0 - - - - - - -
16/01:30pm 16.0 W 14 19 1017.4 - 0.0 - - - - - - -
16/01:00pm 16.2 W 12 17 1017.8 - 0.0 - - - - - - -
16/12:30pm 15.9 W 18 24 1018.0 - 0.0 - - - - - - -
16/12:00pm 16.1 W 15 19 1018.3 - 0.0 - - - - - - -
16/11:30am 16.1 W 14 18 1018.4 - 0.0 - - - - - - -
16/11:00am 16.5 W 13 18 1018.7 - 0.0 - - - - - - -
16/10:30am 16.7 W 11 16 1018.7 - 0.0 - - - - - - -
16/10:00am 16.3 W 10 13 1018.6 - 0.0 - - - - - - -
16/09:30am 15.5 WSW 13 17 1018.8 - 0.0 - - - - - - -
16/09:00am 14.5 WSW 11 15 1018.9 - 0.6 - - - - - - -
16/08:30am 13.8 WSW 11 14 1018.9 - 0.6 - - - - - - -
16/08:00am 12.5 W 7 10 1018.9 - 0.6 - - - - - - -
16/07:30am 12.4 WSW 5 7 1018.7 - 0.6 - - - - - - -
16/07:00am 10.6 SW 5 6 1018.4 - 0.6 - - - - - - -
16/06:30am 10.6 SW 5 6 1018.1 - 0.6 - - - - - - -
16/06:00am 9.8 WNW 4 7 1018.1 - 0.6 - - - - - - -
16/05:30am 10.3 SW 5 6 1017.9 - 0.6 - - - - - - -
16/05:00am 10.0 SSW 6 7 1017.8 - 0.6 - - - - - - -
16/04:30am 9.1 SW 6 6 1017.8 - 0.6 - - - - - - -
16/04:00am 7.6 WSW 5 6 1017.4 - 0.6 - - - - - - -
16/03:30am 6.1 WSW 4 5 1017.3 - 0.6 - - - - - - -
16/03:00am 8.1 SW 6 7 1017.3 - 0.6 - - - - - - -
16/02:30am 8.8 SW 5 6 1017.3 - 0.6 - - - - - - -
16/02:00am 8.5 SSW 5 6 1017.5 - 0.6 - - - - - - -
16/01:30am 9.7 SSW 5 6 1017.8 - 0.6 - - - - - - -
16/01:00am 9.1 S 5 6 1018.0 - 0.6 - - - - - - -
16/12:30am 9.5 SSW 6 7 1018.2 - 0.6 - - - - - - -
16/12:00am 9.2 SW 6 7 1018.2 - 0.6 - - - - - - -
 
Date/Time
CST
Temp

°C
Wind Pressure Rain
since 9am
mm
Weather Cloud Vis
km
Sea
Height
m
Swell
Dir
 
Speed
knots
Gust
knots
hPa Trend Height
m
Period
s
Dir
15/11:30pm 6.8 SW 5 5 1018.3 - 0.6 - - - - - - -
15/11:00pm 7.8 SSW 6 6 1018.3 - 0.6 - - - - - - -
15/10:30pm 7.2 SSW 6 7 1018.3 - 0.6 - - - - - - -
15/10:00pm 7.1 S 5 6 1018.3 - 0.6 - - - - - - -
15/09:30pm 8.5 SSW 7 8 1018.4 - 0.6 - - - - - - -
15/09:00pm 9.4 SSW 7 8 1018.2 - 0.6 - - - - - - -
15/08:30pm 9.5 SSW 8 9 1018.1 - 0.6 - - - - - - -
15/08:00pm 9.4 SW 6 7 1017.9 - 0.6 - - - - - - -
15/07:30pm 9.7 SSW 7 8 1017.8 - 0.6 - - - - - - -
15/07:00pm 10.0 SW 7 8 1017.4 - 0.6 - - - - - - -
15/06:30pm 11.3 SSW 7 8 1016.8 - 0.6 - - - - - - -
15/06:00pm 13.6 SSW 10 13 1016.5 - 0.6 - - - - - - -
15/05:30pm 14.4 SW 15 19 1016.1 - 0.6 - - - - - - -
15/05:00pm 16.1 SW 15 22 1015.6 - 0.6 - - - - - - -
15/04:30pm 16.4 SSW 17 23 1015.5 - 0.6 - - - - - - -
15/04:00pm 16.3 SSW 16 22 1015.1 - 0.6 - - - - - - -
15/03:30pm 15.8 SSW 17 23 1014.9 - 0.6 - - - - - - -
15/03:00pm 17.5 SW 19 24 1014.6 - 0.6 Recent precip. - - - - - -
15/02:30pm 16.7 SW 15 22 1014.5 - 0.6 - - - - - - -
15/02:00pm 16.8 WSW 15 21 1014.4 - 0.0 - - - - - - -
15/01:30pm 17.2 SW 16 21 1014.3 - 0.0 - - - - - - -
15/01:00pm 17.5 SW 19 25 1014.3 - 0.0 - - - - - - -
15/12:45pm 18.4 SW 17 27 1014.1 - 0.0 - - - - - - -
15/12:30pm 17.7 SSW 20 28 1014.0 - 0.0 - - - - - - -
15/12:01pm 18.4 SSW 19 30 1013.8 - 0.0 - - - - - - -
15/12:00pm 18.6 SSW 18 27 1013.8 - 0.0 - - - - - - -
15/11:31am 18.5 SSW 21 31 1013.7 - 0.0 - - - - - - -
15/11:30am 18.5 SSW 20 29 1013.7 - 0.0 - - - - - - -
15/11:00am 19.0 SSW 21 31 1013.3 - 0.0 - - - - - - -
15/10:30am 17.2 SW 22 32 1013.0 - 0.0 - - - - - - -
15/10:01am 17.0 SW 21 31 1013.0 - 0.0 - - - - - - -
15/10:00am 17.1 SW 22 31 1013.0 - 0.0 - - - - - - -
15/09:30am 16.0 SW 21 30 1012.6 - 0.0 - - - - - - -
15/09:22am 16.1 SW 19 30 1012.4 - 0.0 - - - - - - -
15/09:00am 15.2 SW 19 26 1012.1 - 0.0 - - - - - - -
15/08:30am 14.9 SW 20 28 1011.8 - 0.0 - - - - - - -
15/08:00am 14.6 WSW 19 25 1011.4 - 0.0 - - - - - - -
15/07:30am 14.3 WSW 18 22 1010.9 - 0.0 - - - - - - -
15/07:00am 14.3 WSW 16 22 1010.6 - 0.0 - - - - - - -
15/06:30am 14.2 WSW 14 19 1010.1 - 0.0 - - - - - - -
15/06:00am 14.1 W 14 21 1009.9 - 0.0 - - - - - - -
15/05:30am 14.1 WSW 14 19 1009.7 - 0.0 - - - - - - -
15/05:00am 14.4 W 15 21 1009.6 - 0.0 - - - - - - -
15/04:30am 14.3 NW 14 19 1009.6 - 0.0 - - - - - - -
15/04:00am 14.1 NW 13 17 1009.5 - 0.0 - - - - - - -
15/03:30am 14.2 NW 13 19 1009.6 - 0.0 - - - - - - -
15/03:00am 14.1 NNW 11 18 1009.9 - 0.0 - - - - - - -
15/02:30am 14.0 NNW 11 14 1010.1 - 0.0 - - - - - - -
15/02:00am 14.0 NNW 11 15 1010.5 - 0.0 - - - - - - -
15/01:30am 13.9 NNW 10 14 1010.8 - 0.0 - - - - - - -
15/01:00am 13.3 N 8 11 1010.9 - 0.0 - - - - - - -
15/12:30am 12.3 N 7 9 1010.9 - 0.0 - - - - - - -
15/12:00am 13.0 N 8 10 1011.3 - 0.0 - - - - - - -
 
Date/Time
CST
Temp

°C
Wind Pressure Rain
since 9am
mm
Weather Cloud Vis
km
Sea
Height
m
Swell
Dir
 
Speed
knots
Gust
knots
hPa Trend Height
m
Period
s
Dir
14/11:30pm 13.3 NNW 8 11 1011.6 - 0.0 - - - - - - -
14/11:00pm 13.3 WNW 14 20 1012.2 - 0.0 - - - - - - -
14/10:30pm 14.1 WNW 14 18 1012.4 - 0.0 - - - - - - -
14/10:00pm 13.8 WNW 12 17 1012.7 - 0.0 - - - - - - -
14/09:30pm 14.0 WNW 12 16 1012.5 - 0.0 - - - - - - -
14/09:00pm 14.6 WNW 13 18 1012.4 - 0.0 - - - - - - -
14/08:30pm 14.8 W 11 14 1012.2 - 0.0 - - - - - - -
14/08:00pm 15.8 NW 8 11 1012.0 - 0.0 - - - - - - -
14/07:30pm 17.7 WNW 8 11 1011.8 - 0.0 - - - - - - -
14/07:00pm 20.6 NNW 12 18 1011.5 - 0.0 - - - - - - -
14/06:47pm 21.1 NW 16 34 1011.2 - 0.0 - - - - - - -
14/06:30pm 20.9 NE 13 17 1010.0 - 0.0 - - - - - - -
14/06:00pm 21.8 NE 14 17 1010.0 - 0.0 - - - - - - -
14/05:30pm 22.9 NE 14 17 1010.2 - 0.0 - - - - - - -
14/05:00pm 24.3 NNE 14 18 1010.4 - 0.0 - - - - - - -
14/04:30pm 24.9 NNE 13 22 1010.9 - 0.0 - - - - - - -
14/04:00pm 24.4 ENE 14 17 1011.3 - 0.0 - - - - - - -
14/03:30pm 24.2 E 15 19 1011.8 - 0.0 - - - - - - -
14/03:00pm 25.5 E 14 19 1011.8 - 0.0 - - - - - - -
14/02:30pm 25.4 ENE 14 20 1012.3 - 0.0 - - - - - - -
14/02:00pm 24.7 ENE 13 18 1012.9 - 0.0 - - - - - - -
14/01:30pm 24.8 ENE 13 18 1013.6 - 0.0 - - - - - - -
14/01:00pm 25.0 NE 12 17 1014.2 - 0.0 - - - - - - -
14/12:30pm 24.3 NE 11 17 1015.1 - 0.0 - - - - - - -
14/12:00pm 23.1 NE 10 14 1015.8 - 0.0 - - - - - - -
14/11:30am 22.8 ENE 9 13 1016.5 - 0.0 - - - - - - -
14/11:00am 20.9 E 10 14 1017.2 - 0.0 - - - - - - -
14/10:30am 18.7 E 12 15 1017.5 - 0.0 - - - - - - -
14/10:00am 19.1 E 12 16 1017.9 - 0.0 - - - - - - -
14/09:30am 17.2 E 14 18 1017.8 - 0.0 - - - - - - -
14/09:00am 16.6 E 13 17 1018.4 - 0.2 - - - - - - -
14/08:30am 14.6 E 12 15 1018.5 - 0.2 - - - - - - -
14/08:00am 13.5 E 13 17 1018.1 - 0.2 - - - - - - -
14/07:30am 12.2 E 14 16 1017.7 - 0.2 - - - - - - -
14/07:00am 11.3 E 13 16 1017.5 - 0.2 - - - - - - -

Other Formats:

Comma delimited format used in spreadsheet applications
http://www.bom.gov.au/fwo/IDS60701/IDS60701.95659.axf

JavaScript Object Notation format (JSON) in row-major order
http://www.bom.gov.au/fwo/IDS60701/IDS60701.95659.json